sensor_id;sensor_type;location;lat;lon;timestamp;pressure;altitude;pressure_sealevel;temperature;humidity
42247;BME280;27913;42.722;23.268;2023-07-08T00:03:08;95268.50;;;18.70;98.17
42247;BME280;27913;42.722;23.268;2023-07-08T00:05:34;95210.13;;;18.33;98.36
42247;BME280;27913;42.722;23.268;2023-07-08T00:08:00;95322.34;;;18.97;98.42
42247;BME280;27913;42.722;23.268;2023-07-08T00:10:27;95311.69;;;18.97;98.52
42247;BME280;27913;42.722;23.268;2023-07-08T00:12:56;95285.63;;;18.75;98.85
42247;BME280;27913;42.722;23.268;2023-07-08T00:15:26;95298.13;;;18.86;98.72
42247;BME280;27913;42.722;23.268;2023-07-08T00:17:52;95158.00;;;17.89;98.92
42247;BME280;27913;42.722;23.268;2023-07-08T00:20:26;95240.22;;;18.45;99.45
42247;BME280;27913;42.722;23.268;2023-07-08T00:22:56;95300.34;;;18.77;99.34
42247;BME280;27913;42.722;23.268;2023-07-08T00:25:22;95235.25;;;18.37;99.09
42247;BME280;27913;42.722;23.268;2023-07-08T00:27:48;95291.50;;;18.77;99.36
42247;BME280;27913;42.722;23.268;2023-07-08T00:30:28;95307.63;;;18.82;99.14
42247;BME280;27913;42.722;23.268;2023-07-08T00:32:55;95213.72;;;18.27;99.40
42247;BME280;27913;42.722;23.268;2023-07-08T00:35:37;95262.09;;;18.59;99.27
42247;BME280;27913;42.722;23.268;2023-07-08T00:38:25;95282.75;;;18.76;99.55
42247;BME280;27913;42.722;23.268;2023-07-08T00:43:34;95286.91;;;18.72;99.59
42247;BME280;27913;42.722;23.268;2023-07-08T00:49:26;95209.09;;;18.22;100.00
42247;BME280;27913;42.722;23.268;2023-07-08T00:51:53;95269.06;;;18.61;100.00
42247;BME280;27913;42.722;23.268;2023-07-08T00:54:20;95225.63;;;18.24;100.00
42247;BME280;27913;42.722;23.268;2023-07-08T00:56:53;95185.53;;;17.95;100.00
42247;BME280;27913;42.722;23.268;2023-07-08T00:59:33;95219.69;;;18.10;100.00
42247;BME280;27913;42.722;23.268;2023-07-08T01:02:02;95270.91;;;18.36;100.00
42247;BME280;27913;42.722;23.268;2023-07-08T01:04:34;95198.28;;;18.05;100.00
42247;BME280;27913;42.722;23.268;2023-07-08T01:07:03;95149.88;;;17.60;100.00
42247;BME280;27913;42.722;23.268;2023-07-08T01:10:02;95249.47;;;18.19;100.00
42247;BME280;27913;42.722;23.268;2023-07-08T01:12:39;95249.47;;;18.19;100.00
42247;BME280;27913;42.722;23.268;2023-07-08T01:15:07;95245.19;;;18.18;100.00
42247;BME280;27913;42.722;23.268;2023-07-08T01:17:34;95150.88;;;17.59;100.00
42247;BME280;27913;42.722;23.268;2023-07-08T01:20:00;95244.59;;;18.16;100.00
42247;BME280;27913;42.722;23.268;2023-07-08T01:22:25;95256.06;;;18.16;100.00
42247;BME280;27913;42.722;23.268;2023-07-08T01:24:57;95247.25;;;18.16;100.00
42247;BME280;27913;42.722;23.268;2023-07-08T01:27:28;95246.78;;;18.19;100.00
42247;BME280;27913;42.722;23.268;2023-07-08T01:29:55;95149.50;;;17.56;100.00
42247;BME280;27913;42.722;23.268;2023-07-08T01:32:20;95253.53;;;18.21;100.00
42247;BME280;27913;42.722;23.268;2023-07-08T01:34:46;95217.59;;;18.00;100.00
42247;BME280;27913;42.722;23.268;2023-07-08T01:37:34;95188.97;;;17.83;99.89
42247;BME280;27913;42.722;23.268;2023-07-08T01:42:44;95247.63;;;18.31;99.41
42247;BME280;27913;42.722;23.268;2023-07-08T01:45:16;95244.97;;;18.31;99.25
42247;BME280;27913;42.722;23.268;2023-07-08T01:47:46;95225.06;;;18.22;99.21
42247;BME280;27913;42.722;23.268;2023-07-08T01:50:14;95242.31;;;18.31;99.33
42247;BME280;27913;42.722;23.268;2023-07-08T01:52:40;95241.47;;;18.31;99.68
42247;BME280;27913;42.722;23.268;2023-07-08T01:55:06;95236.75;;;18.33;99.56
42247;BME280;27913;42.722;23.268;2023-07-08T01:57:31;95254.94;;;18.36;99.31
42247;BME280;27913;42.722;23.268;2023-07-08T01:59:57;95142.84;;;17.78;99.15
42247;BME280;27913;42.722;23.268;2023-07-08T02:02:22;95196.44;;;18.05;98.97
42247;BME280;27913;42.722;23.268;2023-07-08T02:04:49;95219.75;;;18.22;99.12
42247;BME280;27913;42.722;23.268;2023-07-08T02:07:15;95160.78;;;17.82;99.25
42247;BME280;27913;42.722;23.268;2023-07-08T02:09:41;95247.63;;;18.31;99.30
42247;BME280;27913;42.722;23.268;2023-07-08T02:12:07;95252.38;;;18.29;99.55
42247;BME280;27913;42.722;23.268;2023-07-08T02:14:32;95111.19;;;17.33;99.50
42247;BME280;27913;42.722;23.268;2023-07-08T02:16:58;95150.47;;;17.62;99.45
42247;BME280;27913;42.722;23.268;2023-07-08T02:19:24;95198.72;;;17.90;99.68
42247;BME280;27913;42.722;23.268;2023-07-08T02:21:49;95209.16;;;18.03;99.87
42247;BME280;27913;42.722;23.268;2023-07-08T02:24:17;95206.69;;;17.90;99.69
42247;BME280;27913;42.722;23.268;2023-07-08T02:26:42;95214.09;;;17.87;100.00
42247;BME280;27913;42.722;23.268;2023-07-08T02:29:07;95215.50;;;17.90;100.00
42247;BME280;27913;42.722;23.268;2023-07-08T02:31:33;95244.09;;;18.07;100.00
42247;BME280;27913;42.722;23.268;2023-07-08T02:33:58;95269.81;;;18.13;100.00
42247;BME280;27913;42.722;23.268;2023-07-08T02:36:24;95125.03;;;17.23;100.00
42247;BME280;27913;42.722;23.268;2023-07-08T02:38:49;95175.50;;;17.54;100.00
42247;BME280;27913;42.722;23.268;2023-07-08T02:41:16;95265.88;;;18.16;100.00
42247;BME280;27913;42.722;23.268;2023-07-08T02:43:41;95220.59;;;17.92;100.00
42247;BME280;27913;42.722;23.268;2023-07-08T02:46:08;95256.06;;;18.16;100.00
42247;BME280;27913;42.722;23.268;2023-07-08T02:48:33;95259.22;;;18.06;100.00
42247;BME280;27913;42.722;23.268;2023-07-08T02:51:02;95297.81;;;18.16;100.00
42247;BME280;27913;42.722;23.268;2023-07-08T02:53:28;95232.22;;;17.79;100.00
42247;BME280;27913;42.722;23.268;2023-07-08T02:55:54;95090.09;;;16.89;100.00
42247;BME280;27913;42.722;23.268;2023-07-08T02:58:19;95232.31;;;17.72;100.00
42247;BME280;27913;42.722;23.268;2023-07-08T03:00:45;95215.88;;;17.63;100.00
42247;BME280;27913;42.722;23.268;2023-07-08T03:03:11;95254.22;;;17.86;100.00
42247;BME280;27913;42.722;23.268;2023-07-08T03:05:36;95303.16;;;18.16;100.00
42247;BME280;27913;42.722;23.268;2023-07-08T03:08:02;95288.78;;;18.17;100.00
42247;BME280;27913;42.722;23.268;2023-07-08T03:10:27;95209.88;;;17.68;100.00
42247;BME280;27913;42.722;23.268;2023-07-08T03:12:53;95290.78;;;18.21;100.00
42247;BME280;27913;42.722;23.268;2023-07-08T03:15:18;95192.06;;;17.56;100.00
42247;BME280;27913;42.722;23.268;2023-07-08T03:17:44;95227.25;;;17.82;100.00
42247;BME280;27913;42.722;23.268;2023-07-08T03:20:10;95271.38;;;18.02;100.00
42247;BME280;27913;42.722;23.268;2023-07-08T03:22:36;95305.34;;;18.19;100.00
42247;BME280;27913;42.722;23.268;2023-07-08T03:25:02;95294.94;;;18.17;100.00
42247;BME280;27913;42.722;23.268;2023-07-08T03:27:28;95293.91;;;18.18;100.00
42247;BME280;27913;42.722;23.268;2023-07-08T03:29:54;95246.72;;;17.95;100.00
42247;BME280;27913;42.722;23.268;2023-07-08T03:32:19;95298.66;;;18.28;99.67
42247;BME280;27913;42.722;23.268;2023-07-08T03:34:44;95292.88;;;18.31;99.53
42247;BME280;27913;42.722;23.268;2023-07-08T03:37:10;95230.31;;;17.98;99.04
42247;BME280;27913;42.722;23.268;2023-07-08T03:39:35;95288.03;;;18.40;98.98
42247;BME280;27913;42.722;23.268;2023-07-08T03:42:01;95243.78;;;18.15;98.98
42247;BME280;27913;42.722;23.268;2023-07-08T03:44:28;95282.94;;;18.51;98.39
42247;BME280;27913;42.722;23.268;2023-07-08T03:46:54;95281.56;;;18.48;97.72
42247;BME280;27913;42.722;23.268;2023-07-08T03:49:21;95188.06;;;17.90;97.90
42247;BME280;27913;42.722;23.268;2023-07-08T03:51:51;95290.59;;;18.47;98.21
42247;BME280;27913;42.722;23.268;2023-07-08T03:54:21;95218.19;;;18.02;98.10
42247;BME280;27913;42.722;23.268;2023-07-08T03:56:47;95280.63;;;18.42;98.30
42247;BME280;27913;42.722;23.268;2023-07-08T03:59:13;95280.50;;;18.49;98.55
42247;BME280;27913;42.722;23.268;2023-07-08T04:01:39;95188.91;;;18.02;97.90
42247;BME280;27913;42.722;23.268;2023-07-08T04:04:08;95276.47;;;18.58;97.78
42247;BME280;27913;42.722;23.268;2023-07-08T04:06:34;95275.31;;;18.54;97.62
42247;BME280;27913;42.722;23.268;2023-07-08T04:08:59;95180.22;;;17.95;97.56
42247;BME280;27913;42.722;23.268;2023-07-08T04:11:26;95285.72;;;18.56;97.71
42247;BME280;27913;42.722;23.268;2023-07-08T04:13:52;95273.22;;;18.44;98.26
42247;BME280;27913;42.722;23.268;2023-07-08T04:16:27;95283.06;;;18.44;98.24
42247;BME280;27913;42.722;23.268;2023-07-08T04:18:54;95206.47;;;17.91;98.54
42247;BME280;27913;42.722;23.268;2023-07-08T04:21:22;95221.44;;;18.04;98.88
42247;BME280;27913;42.722;23.268;2023-07-08T04:23:48;95240.72;;;18.11;99.06
42247;BME280;27913;42.722;23.268;2023-07-08T04:26:13;95263.59;;;18.31;99.25
42247;BME280;27913;42.722;23.268;2023-07-08T04:28:39;95252.59;;;18.28;99.15
42247;BME280;27913;42.722;23.268;2023-07-08T04:31:05;95241.03;;;18.22;98.77
42247;BME280;27913;42.722;23.268;2023-07-08T04:33:30;95286.44;;;18.51;98.63
42247;BME280;27913;42.722;23.268;2023-07-08T04:35:56;95283.75;;;18.51;98.45
42247;BME280;27913;42.722;23.268;2023-07-08T04:38:23;95269.50;;;18.33;98.77
42247;BME280;27913;42.722;23.268;2023-07-08T04:40:50;95288.63;;;18.54;99.09
42247;BME280;27913;42.722;23.268;2023-07-08T04:43:17;95276.00;;;18.50;98.57
42247;BME280;27913;42.722;23.268;2023-07-08T04:45:45;95292.56;;;18.64;98.23
42247;BME280;27913;42.722;23.268;2023-07-08T04:48:14;95223.06;;;18.17;98.07
42247;BME280;27913;42.722;23.268;2023-07-08T04:50:44;95262.59;;;18.44;98.43
42247;BME280;27913;42.722;23.268;2023-07-08T04:53:10;95251.56;;;18.29;97.79
42247;BME280;27913;42.722;23.268;2023-07-08T04:55:38;95253.53;;;18.33;98.20
42247;BME280;27913;42.722;23.268;2023-07-08T04:58:04;95295.13;;;18.70;97.88
42247;BME280;27913;42.722;23.268;2023-07-08T05:00:30;95304.03;;;18.76;97.35
42247;BME280;27913;42.722;23.268;2023-07-08T05:02:55;95298.72;;;18.76;98.06
42247;BME280;27913;42.722;23.268;2023-07-08T05:05:21;95309.38;;;18.76;97.30
42247;BME280;27913;42.722;23.268;2023-07-08T05:07:46;95109.88;;;17.55;96.98
42247;BME280;27913;42.722;23.268;2023-07-08T05:10:14;95306.81;;;18.81;97.05
42247;BME280;27913;42.722;23.268;2023-07-08T05:12:41;95215.44;;;18.33;96.35
42247;BME280;27913;42.722;23.268;2023-07-08T05:15:07;95253.06;;;18.49;96.24
42247;BME280;27913;42.722;23.268;2023-07-08T05:17:33;95319.44;;;18.86;96.88
42247;BME280;27913;42.722;23.268;2023-07-08T05:19:59;95146.56;;;17.89;96.09
42247;BME280;27913;42.722;23.268;2023-07-08T05:22:27;95265.00;;;18.70;95.63
42247;BME280;27913;42.722;23.268;2023-07-08T05:24:53;95316.28;;;19.01;95.59
42247;BME280;27913;42.722;23.268;2023-07-08T05:27:23;95181.31;;;18.18;95.30
42247;BME280;27913;42.722;23.268;2023-07-08T05:29:49;95317.81;;;19.09;94.85
42247;BME280;27913;42.722;23.268;2023-07-08T05:32:16;95278.41;;;18.87;95.45
42247;BME280;27913;42.722;23.268;2023-07-08T05:34:41;95327.09;;;19.30;95.60
42247;BME280;27913;42.722;23.268;2023-07-08T05:37:07;95174.34;;;18.53;94.69
42247;BME280;27913;42.722;23.268;2023-07-08T05:39:33;95311.38;;;19.58;92.76
42247;BME280;27913;42.722;23.268;2023-07-08T05:41:58;95279.16;;;19.48;92.47
42247;BME280;27913;42.722;23.268;2023-07-08T05:44:24;95336.38;;;19.69;91.10
42247;BME280;27913;42.722;23.268;2023-07-08T05:46:50;95331.16;;;19.74;91.18
42247;BME280;27913;42.722;23.268;2023-07-08T05:49:16;95234.94;;;19.11;90.45
42247;BME280;27913;42.722;23.268;2023-07-08T05:51:45;95282.31;;;19.45;90.08
42247;BME280;27913;42.722;23.268;2023-07-08T05:54:11;95233.13;;;19.11;89.97
42247;BME280;27913;42.722;23.268;2023-07-08T05:56:37;95296.34;;;19.40;88.18
42247;BME280;27913;42.722;23.268;2023-07-08T05:59:03;95320.88;;;19.54;88.25
42247;BME280;27913;42.722;23.268;2023-07-08T06:01:28;95283.97;;;19.22;88.71
42247;BME280;27913;42.722;23.268;2023-07-08T06:03:54;95331.09;;;19.57;89.10
42247;BME280;27913;42.722;23.268;2023-07-08T06:06:23;95295.78;;;19.26;89.03
42247;BME280;27913;42.722;23.268;2023-07-08T06:08:49;95286.66;;;19.10;89.00
42247;BME280;27913;42.722;23.268;2023-07-08T06:11:14;95144.53;;;18.27;89.04
42247;BME280;27913;42.722;23.268;2023-07-08T06:13:40;95354.63;;;19.60;89.01
42247;BME280;27913;42.722;23.268;2023-07-08T06:16:05;95352.50;;;19.74;87.99
42247;BME280;27913;42.722;23.268;2023-07-08T06:18:31;95313.25;;;19.46;85.46
42247;BME280;27913;42.722;23.268;2023-07-08T06:20:57;95361.28;;;19.87;85.53
42247;BME280;27913;42.722;23.268;2023-07-08T06:23:24;95305.66;;;19.66;85.46
42247;BME280;27913;42.722;23.268;2023-07-08T06:25:50;95309.09;;;19.79;84.39
42247;BME280;27913;42.722;23.268;2023-07-08T06:28:16;95314.31;;;19.74;83.14
42247;BME280;27913;42.722;23.268;2023-07-08T06:30:41;95361.22;;;19.99;83.52
42247;BME280;27913;42.722;23.268;2023-07-08T06:33:07;95296.66;;;19.55;83.65
42247;BME280;27913;42.722;23.268;2023-07-08T06:35:32;95328.69;;;19.85;83.02
42247;BME280;27913;42.722;23.268;2023-07-08T06:37:58;95295.91;;;19.72;83.62
42247;BME280;27913;42.722;23.268;2023-07-08T06:40:24;95364.72;;;20.28;83.21
42247;BME280;27913;42.722;23.268;2023-07-08T06:42:49;95351.22;;;20.35;81.88
42247;BME280;27913;42.722;23.268;2023-07-08T06:45:15;95347.81;;;20.23;79.99
42247;BME280;27913;42.722;23.268;2023-07-08T06:47:41;95329.75;;;20.13;80.29
42247;BME280;27913;42.722;23.268;2023-07-08T06:50:07;95324.09;;;20.26;78.92
42247;BME280;27913;42.722;23.268;2023-07-08T06:52:33;95304.66;;;20.14;79.30
42247;BME280;27913;42.722;23.268;2023-07-08T06:55:01;95291.75;;;19.94;79.37
42247;BME280;27913;42.722;23.268;2023-07-08T06:57:27;95357.63;;;20.34;78.32
42247;BME280;27913;42.722;23.268;2023-07-08T06:59:53;95340.44;;;20.13;79.72
42247;BME280;27913;42.722;23.268;2023-07-08T07:02:19;95304.47;;;20.03;79.28
42247;BME280;27913;42.722;23.268;2023-07-08T07:04:45;95313.00;;;20.18;79.12
42247;BME280;27913;42.722;23.268;2023-07-08T07:07:11;95350.19;;;20.54;79.59
42247;BME280;27913;42.722;23.268;2023-07-08T07:09:36;95322.75;;;20.41;80.06
42247;BME280;27913;42.722;23.268;2023-07-08T07:12:02;95332.63;;;20.40;78.78
42247;BME280;27913;42.722;23.268;2023-07-08T07:14:27;95357.31;;;20.48;79.34
42247;BME280;27913;42.722;23.268;2023-07-08T07:16:54;95358.91;;;20.49;79.36
42247;BME280;27913;42.722;23.268;2023-07-08T07:19:19;95368.25;;;20.63;78.15
42247;BME280;27913;42.722;23.268;2023-07-08T07:21:46;95395.69;;;20.76;77.40
42247;BME280;27913;42.722;23.268;2023-07-08T07:24:12;95408.31;;;20.81;77.51
42247;BME280;27913;42.722;23.268;2023-07-08T07:26:37;95301.41;;;20.12;78.32
42247;BME280;27913;42.722;23.268;2023-07-08T07:29:03;95346.94;;;20.51;78.98
42247;BME280;27913;42.722;23.268;2023-07-08T07:31:28;95333.00;;;20.32;78.94
42247;BME280;27913;42.722;23.268;2023-07-08T07:33:54;95326.34;;;20.18;78.46
42247;BME280;27913;42.722;23.268;2023-07-08T07:36:20;95402.47;;;20.67;79.35
42247;BME280;27913;42.722;23.268;2023-07-08T07:38:46;95416.00;;;20.60;78.52
42247;BME280;27913;42.722;23.268;2023-07-08T07:41:11;95392.09;;;20.36;78.41
42247;BME280;27913;42.722;23.268;2023-07-08T07:43:38;95399.94;;;20.43;78.82
42247;BME280;27913;42.722;23.268;2023-07-08T07:46:03;95349.44;;;20.24;78.55
42247;BME280;27913;42.722;23.268;2023-07-08T07:48:31;95367.56;;;20.39;78.72
42247;BME280;27913;42.722;23.268;2023-07-08T07:50:57;95400.22;;;20.75;78.15
42247;BME280;27913;42.722;23.268;2023-07-08T07:53:22;95410.03;;;20.87;77.75
42247;BME280;27913;42.722;23.268;2023-07-08T07:55:48;95391.34;;;20.70;77.02
42247;BME280;27913;42.722;23.268;2023-07-08T07:58:13;95370.25;;;20.56;78.23
42247;BME280;27913;42.722;23.268;2023-07-08T08:00:39;95403.41;;;20.90;77.45
42247;BME280;27913;42.722;23.268;2023-07-08T08:03:04;95349.13;;;20.55;77.17
42247;BME280;27913;42.722;23.268;2023-07-08T08:05:30;95401.66;;;20.95;77.55
42247;BME280;27913;42.722;23.268;2023-07-08T08:07:56;95397.41;;;20.82;76.38
42247;BME280;27913;42.722;23.268;2023-07-08T08:10:21;95406.47;;;20.81;75.93
42247;BME280;27913;42.722;23.268;2023-07-08T08:12:47;95362.41;;;20.49;77.17
42247;BME280;27913;42.722;23.268;2023-07-08T08:15:16;95399.28;;;20.82;77.72
42247;BME280;27913;42.722;23.268;2023-07-08T08:17:42;95407.00;;;20.95;75.92
42247;BME280;27913;42.722;23.268;2023-07-08T08:20:12;95400.91;;;21.00;75.92
42247;BME280;27913;42.722;23.268;2023-07-08T08:22:38;95399.13;;;21.06;75.86
42247;BME280;27913;42.722;23.268;2023-07-08T08:25:04;95368.97;;;20.93;75.62
42247;BME280;27913;42.722;23.268;2023-07-08T08:27:29;95351.63;;;20.79;76.72
42247;BME280;27913;42.722;23.268;2023-07-08T08:29:55;95398.53;;;21.21;76.58
42247;BME280;27913;42.722;23.268;2023-07-08T08:32:20;95409.81;;;21.23;75.50
42247;BME280;27913;42.722;23.268;2023-07-08T08:34:46;95355.47;;;21.00;76.55
42247;BME280;27913;42.722;23.268;2023-07-08T08:37:11;95275.22;;;20.78;75.95
42247;BME280;27913;42.722;23.268;2023-07-08T08:39:37;95366.44;;;21.38;75.49
42247;BME280;27913;42.722;23.268;2023-07-08T08:42:03;95283.38;;;20.88;75.28
42247;BME280;27913;42.722;23.268;2023-07-08T08:44:32;95215.44;;;20.27;74.56
42247;BME280;27913;42.722;23.268;2023-07-08T08:52:41;95321.25;;;21.19;74.50
42247;BME280;27913;42.722;23.268;2023-07-08T08:55:11;95332.72;;;21.37;73.25
42247;BME280;27913;42.722;23.268;2023-07-08T08:57:43;95351.69;;;21.58;72.29
42247;BME280;27913;42.722;23.268;2023-07-08T09:00:14;95294.69;;;21.35;72.58
42247;BME280;27913;42.722;23.268;2023-07-08T09:03:08;95394.75;;;21.96;72.64
42247;BME280;27913;42.722;23.268;2023-07-08T09:55:20;95212.03;;;22.54;66.66
42247;BME280;27913;42.722;23.268;2023-07-08T09:57:48;95184.97;;;22.13;65.45
42247;BME280;27913;42.722;23.268;2023-07-08T10:00:19;95294.91;;;22.61;67.13
42247;BME280;27913;42.722;23.268;2023-07-08T10:02:57;95282.44;;;22.44;65.98
42247;BME280;27913;42.722;23.268;2023-07-08T10:05:33;95326.00;;;22.62;66.27
42247;BME280;27913;42.722;23.268;2023-07-08T10:08:02;95308.78;;;22.58;66.92
42247;BME280;27913;42.722;23.268;2023-07-08T10:10:35;95340.41;;;22.89;67.54
42247;BME280;27913;42.722;23.268;2023-07-08T10:16:01;95342.72;;;22.75;68.09
42247;BME280;27913;42.722;23.268;2023-07-08T10:18:33;95340.94;;;22.86;68.21
42247;BME280;27913;42.722;23.268;2023-07-08T10:21:08;95300.66;;;22.75;66.99
42247;BME280;27913;42.722;23.268;2023-07-08T10:23:47;95312.81;;;22.93;66.14
42247;BME280;27913;42.722;23.268;2023-07-08T10:26:30;95319.06;;;23.04;66.90
42247;BME280;27913;42.722;23.268;2023-07-08T10:29:24;95313.44;;;23.06;64.96
42247;BME280;27913;42.722;23.268;2023-07-08T10:34:54;95185.34;;;22.27;64.74
42247;BME280;27913;42.722;23.268;2023-07-08T11:10:20;95277.19;;;23.47;62.51
42247;BME280;27913;42.722;23.268;2023-07-08T11:12:57;95187.75;;;23.31;60.09
42247;BME280;27913;42.722;23.268;2023-07-08T11:15:31;95154.16;;;23.12;59.87
42247;BME280;27913;42.722;23.268;2023-07-08T11:18:04;95260.91;;;23.80;60.81
42247;BME280;27913;42.722;23.268;2023-07-08T11:21:15;95281.88;;;23.98;59.94
42247;BME280;27913;42.722;23.268;2023-07-08T11:26:23;95268.78;;;24.44;58.69
42247;BME280;27913;42.722;23.268;2023-07-08T11:28:53;95270.38;;;24.55;59.00
42247;BME280;27913;42.722;23.268;2023-07-08T11:31:23;95222.03;;;24.34;57.62
42247;BME280;27913;42.722;23.268;2023-07-08T11:33:50;95273.31;;;24.80;59.85
42247;BME280;27913;42.722;23.268;2023-07-08T11:36:19;95223.63;;;24.67;59.61
42247;BME280;27913;42.722;23.268;2023-07-08T11:38:54;95271.38;;;25.17;56.63
42247;BME280;27913;42.722;23.268;2023-07-08T11:41:22;95245.88;;;24.93;56.25
42247;BME280;27913;42.722;23.268;2023-07-08T11:43:51;95198.06;;;24.59;58.55
42247;BME280;27913;42.722;23.268;2023-07-08T11:46:23;95258.50;;;25.03;54.72
42247;BME280;27913;42.722;23.268;2023-07-08T11:48:55;95275.41;;;25.25;55.91
42247;BME280;27913;42.722;23.268;2023-07-08T11:51:37;95277.03;;;25.81;54.83
42247;BME280;27913;42.722;23.268;2023-07-08T11:54:19;95280.84;;;25.75;53.21
42247;BME280;27913;42.722;23.268;2023-07-08T11:56:58;95266.25;;;25.81;55.19
42247;BME280;27913;42.722;23.268;2023-07-08T11:59:38;95269.06;;;26.06;53.29
42247;BME280;27913;42.722;23.268;2023-07-08T12:02:16;95270.31;;;26.24;51.89
42247;BME280;27913;42.722;23.268;2023-07-08T12:05:15;95268.41;;;26.25;51.89
42247;BME280;27913;42.722;23.268;2023-07-08T12:07:45;95273.97;;;26.04;52.19
42247;BME280;27913;42.722;23.268;2023-07-08T12:10:17;95252.63;;;25.57;53.60
42247;BME280;27913;42.722;23.268;2023-07-08T12:12:45;95265.09;;;25.98;53.84
42247;BME280;27913;42.722;23.268;2023-07-08T12:17:52;95210.84;;;25.75;52.01
42247;BME280;27913;42.722;23.268;2023-07-08T12:20:26;95261.41;;;26.24;49.76
42247;BME280;27913;42.722;23.268;2023-07-08T12:22:52;95277.63;;;26.53;50.83
42247;BME280;27913;42.722;23.268;2023-07-08T12:25:26;95228.63;;;26.46;50.12
42247;BME280;27913;42.722;23.268;2023-07-08T12:27:52;95278.22;;;26.50;50.07
42247;BME280;27913;42.722;23.268;2023-07-08T12:30:18;95227.00;;;25.75;52.56
42247;BME280;27913;42.722;23.268;2023-07-08T12:32:44;95205.53;;;25.60;53.63
42247;BME280;27913;42.722;23.268;2023-07-08T12:35:26;95228.66;;;25.66;52.76
42247;BME280;27913;42.722;23.268;2023-07-08T12:37:54;95261.91;;;25.91;52.89
42247;BME280;27913;42.722;23.268;2023-07-08T12:40:22;95178.06;;;25.12;54.02
42247;BME280;27913;42.722;23.268;2023-07-08T12:42:50;95218.16;;;25.03;54.93
42247;BME280;27913;42.722;23.268;2023-07-08T12:45:19;95215.50;;;24.98;55.00
42247;BME280;27913;42.722;23.268;2023-07-08T12:47:45;95251.78;;;25.01;55.91
42247;BME280;27913;42.722;23.268;2023-07-08T12:50:12;95196.41;;;24.89;55.80
42247;BME280;27913;42.722;23.268;2023-07-08T12:52:39;95252.44;;;25.43;55.78
42247;BME280;27913;42.722;23.268;2023-07-08T12:55:08;95218.31;;;25.33;55.60
42247;BME280;27913;42.722;23.268;2023-07-08T12:57:34;95253.72;;;25.56;53.88
42247;BME280;27913;42.722;23.268;2023-07-08T13:00:00;95215.53;;;25.49;53.58
42247;BME280;27913;42.722;23.268;2023-07-08T13:02:28;95216.59;;;25.53;52.68
42247;BME280;27913;42.722;23.268;2023-07-08T13:04:59;95219.66;;;25.86;52.92
42247;BME280;27913;42.722;23.268;2023-07-08T13:07:38;95228.41;;;25.57;52.10
42247;BME280;27913;42.722;23.268;2023-07-08T13:10:06;95260.59;;;25.83;52.45
42247;BME280;27913;42.722;23.268;2023-07-08T13:12:35;95281.25;;;25.98;51.08
42247;BME280;27913;42.722;23.268;2023-07-08T13:15:06;95260.09;;;26.21;50.11
42247;BME280;27913;42.722;23.268;2023-07-08T13:17:36;95255.69;;;26.30;50.55
42247;BME280;27913;42.722;23.268;2023-07-08T13:20:04;95264.19;;;26.48;50.99
42247;BME280;27913;42.722;23.268;2023-07-08T13:22:32;95258.28;;;26.46;50.01
42247;BME280;27913;42.722;23.268;2023-07-08T13:25:02;95250.25;;;26.41;50.74
42247;BME280;27913;42.722;23.268;2023-07-08T13:27:28;95259.63;;;26.49;50.24
42247;BME280;27913;42.722;23.268;2023-07-08T13:29:56;95238.59;;;26.51;51.04
42247;BME280;27913;42.722;23.268;2023-07-08T13:32:30;95200.56;;;26.52;51.64
42247;BME280;27913;42.722;23.268;2023-07-08T13:34:56;95249.69;;;26.74;50.90
42247;BME280;27913;42.722;23.268;2023-07-08T13:37:22;95249.66;;;26.79;51.26
42247;BME280;27913;42.722;23.268;2023-07-08T13:39:52;95206.84;;;26.72;50.58
42247;BME280;27913;42.722;23.268;2023-07-08T13:42:18;95257.16;;;27.12;50.44
42247;BME280;27913;42.722;23.268;2023-07-08T13:44:46;95209.06;;;26.00;50.41
42247;BME280;27913;42.722;23.268;2023-07-08T13:47:28;95262.66;;;26.42;50.16
42247;BME280;27913;42.722;23.268;2023-07-08T13:50:00;95220.97;;;26.24;50.93
42247;BME280;27913;42.722;23.268;2023-07-08T13:52:27;95242.97;;;26.71;50.24
42247;BME280;27913;42.722;23.268;2023-07-08T13:54:58;95173.00;;;26.56;49.81
42247;BME280;27913;42.722;23.268;2023-07-08T13:57:37;95247.94;;;27.13;50.16
42247;BME280;27913;42.722;23.268;2023-07-08T14:00:05;95166.75;;;26.60;50.24
42247;BME280;27913;42.722;23.268;2023-07-08T14:02:33;95231.47;;;26.90;47.89
42247;BME280;27913;42.722;23.268;2023-07-08T14:04:59;95184.25;;;26.38;48.36
42247;BME280;27913;42.722;23.268;2023-07-08T14:07:28;95196.41;;;26.30;49.61
42247;BME280;27913;42.722;23.268;2023-07-08T14:09:54;95249.91;;;26.53;49.48
42247;BME280;27913;42.722;23.268;2023-07-08T14:12:22;95194.56;;;26.26;50.13
42247;BME280;27913;42.722;23.268;2023-07-08T14:14:51;95256.16;;;26.73;48.63
42247;BME280;27913;42.722;23.268;2023-07-08T14:17:23;95180.38;;;26.15;49.60
42247;BME280;27913;42.722;23.268;2023-07-08T14:19:49;95152.72;;;26.39;48.55
42247;BME280;27913;42.722;23.268;2023-07-08T14:22:25;95259.97;;;27.26;48.93
42247;BME280;27913;42.722;23.268;2023-07-08T14:24:52;95170.84;;;26.28;50.03
42247;BME280;27913;42.722;23.268;2023-07-08T14:27:18;95204.16;;;26.02;50.32
42247;BME280;27913;42.722;23.268;2023-07-08T14:29:46;95258.94;;;25.92;50.99
42247;BME280;27913;42.722;23.268;2023-07-08T14:32:24;95231.41;;;25.50;53.11
42247;BME280;27913;42.722;23.268;2023-07-08T14:35:14;95218.16;;;25.59;51.07
42247;BME280;27913;42.722;23.268;2023-07-08T14:37:41;95262.53;;;26.17;50.13
42247;BME280;27913;42.722;23.268;2023-07-08T14:40:34;95250.53;;;25.99;51.50
42247;BME280;27913;42.722;23.268;2023-07-08T14:43:10;95247.59;;;26.30;50.66
42247;BME280;27913;42.722;23.268;2023-07-08T14:45:42;95209.19;;;26.20;50.28